Time;durP1;ratioP1;P1;durP2;ratioP2;P2;SDS_P1;SDS_P2;PMS_P1;PMS_P2;Temp;Humidity;BMP_temperature;BMP_pressure;BME280_temperature;BME280_humidity;BME280_pressure;Samples;Min_cycle;Max_cycle;Signal;HPM_P1;HPM_P2
2022/04/30 00:02:09;;;;;;;13.77;5.43;;;;;;;10.99;48.65;102474.38;4960327;28;98756;-83
2022/04/30 00:04:39;;;;;;;9.40;4.20;;;;;;;10.95;48.97;102467.47;4957020;28;99434;-83
2022/04/30 00:07:05;;;;;;;4.40;3.47;;;;;;;10.95;48.88;102462.75;4889245;28;96887;-83
2022/04/30 00:09:30;;;;;;;4.23;3.83;;;;;;;10.94;48.92;102465.97;4890395;28;96772;-83
2022/04/30 00:11:57;;;;;;;5.10;4.00;;;;;;;10.94;48.96;102471.47;4954262;28;99738;-84
2022/04/30 00:14:23;;;;;;;5.20;3.70;;;;;;;10.87;48.94;102472.50;4954626;28;97978;-84
2022/04/30 00:16:48;;;;;;;4.80;3.00;;;;;;;10.87;48.93;102463.47;4955104;28;97247;-84
2022/04/30 00:19:14;;;;;;;4.03;3.57;;;;;;;10.85;49.15;102465.91;4890241;28;96887;-84
2022/04/30 00:21:40;;;;;;;4.63;2.43;;;;;;;10.81;49.05;102463.25;4954287;28;99839;-84
2022/04/30 00:24:06;;;;;;;4.00;2.80;;;;;;;10.76;49.09;102466.63;4953330;28;99234;-83
2022/04/30 00:26:31;;;;;;;5.03;2.20;;;;;;;10.68;49.04;102465.31;4953065;28;96869;-84
2022/04/30 00:28:56;;;;;;;3.80;2.13;;;;;;;10.66;49.18;102454.00;4950934;28;96934;-83
2022/04/30 00:31:22;;;;;;;2.23;1.80;;;;;;;10.62;49.42;102456.09;4951332;28;98913;-84
2022/04/30 00:33:48;;;;;;;4.80;2.10;;;;;;;10.62;49.33;102463.59;4949699;28;96887;-84
2022/04/30 00:36:14;;;;;;;5.23;2.00;;;;;;;10.59;49.51;102464.50;4890472;28;97014;-83
2022/04/30 00:38:41;;;;;;;2.90;1.67;;;;;;;10.57;49.44;102465.69;4952515;28;97122;-83
2022/04/30 00:41:10;;;;;;;3.87;1.93;;;;;;;10.55;49.94;102468.13;4889387;28;97605;-83
2022/04/30 00:43:46;;;;;;;4.20;2.03;;;;;;;10.54;50.35;102447.34;4957897;28;97776;-83
2022/04/30 00:46:16;;;;;;;2.30;1.90;;;;;;;10.53;49.54;102459.56;4969151;28;97159;-83
2022/04/30 00:48:44;;;;;;;2.23;2.10;;;;;;;10.51;49.84;102444.72;4952485;28;96882;-84
2022/04/30 00:51:12;;;;;;;1.70;1.60;;;;;;;10.50;49.58;102443.97;4961451;28;99818;-84
2022/04/30 00:53:44;;;;;;;4.27;2.03;;;;;;;10.45;50.07;102455.53;4943802;28;97213;-84
2022/04/30 00:56:11;;;;;;;3.37;1.60;;;;;;;10.45;49.90;102452.78;4953824;28;96688;-84
2022/04/30 00:58:40;;;;;;;2.30;1.83;;;;;;;10.43;49.95;102444.22;4953340;28;96805;-84
2022/04/30 01:01:06;;;;;;;2.30;1.60;;;;;;;10.38;49.83;102455.78;4966312;28;102594;-83
2022/04/30 01:03:32;;;;;;;3.73;1.90;;;;;;;10.35;49.97;102448.41;4950412;28;98412;-83
2022/04/30 01:06:01;;;;;;;3.00;2.03;;;;;;;10.36;50.23;102441.69;4953455;28;97359;-84
2022/04/30 01:08:27;;;;;;;1.67;1.50;;;;;;;10.35;50.11;102450.41;4953747;28;96945;-84
2022/04/30 01:11:11;;;;;;;2.83;2.00;;;;;;;10.30;51.36;102440.75;4960893;28;96646;-83
2022/04/30 01:13:37;;;;;;;1.60;1.50;;;;;;;10.26;50.33;102436.59;4888824;28;96698;-83
2022/04/30 01:16:04;;;;;;;6.30;1.67;;;;;;;10.28;50.19;102456.94;4966969;28;96975;-83
2022/04/30 01:18:33;;;;;;;4.30;1.77;;;;;;;10.28;50.27;102442.41;4889356;28;96523;-84
2022/04/30 01:21:07;;;;;;;1.87;1.70;;;;;;;10.23;50.50;102435.50;4952633;28;98430;-84
2022/04/30 01:23:34;;;;;;;2.70;1.80;;;;;;;10.22;50.38;102442.19;4949916;28;98590;-84
2022/04/30 01:26:02;;;;;;;3.57;1.60;;;;;;;10.23;50.47;102429.22;4965919;28;97062;-84
2022/04/30 01:28:28;;;;;;;2.60;1.70;;;;;;;10.19;50.40;102423.84;4888449;28;97318;-84
2022/04/30 01:30:55;;;;;;;1.93;1.83;;;;;;;10.20;50.23;102439.13;4887314;28;97891;-84
2022/04/30 01:38:48;;;;;;;3.57;1.90;;;;;;;10.09;50.36;102422.19;4889886;28;96909;-84
2022/04/30 01:41:14;;;;;;;3.13;2.00;;;;;;;10.08;50.40;102428.13;4956917;28;100652;-84
2022/04/30 01:43:39;;;;;;;3.07;1.90;;;;;;;10.04;50.53;102433.78;4955215;28;99516;-84
2022/04/30 01:46:05;;;;;;;2.10;1.93;;;;;;;10.01;50.55;102417.38;4960260;28;97003;-83
2022/04/30 01:48:32;;;;;;;4.40;2.30;;;;;;;9.96;50.80;102428.97;4957646;28;97127;-83
2022/04/30 01:50:57;;;;;;;3.80;1.70;;;;;;;9.94;50.86;102423.16;4953758;28;99015;-84
2022/04/30 01:53:22;;;;;;;2.83;2.37;;;;;;;9.93;50.84;102411.38;4955509;28;97376;-83
2022/04/30 01:55:48;;;;;;;2.23;1.70;;;;;;;9.96;50.89;102413.22;4894506;28;96874;-86
2022/04/30 01:58:13;;;;;;;1.90;1.80;;;;;;;9.97;50.94;102403.75;4952055;28;96955;-84
2022/04/30 02:00:39;;;;;;;4.30;2.00;;;;;;;9.96;51.07;102407.72;4951334;28;97741;-82
2022/04/30 02:03:07;;;;;;;4.53;2.20;;;;;;;9.86;50.82;102408.84;4957319;28;98500;-84
2022/04/30 02:05:35;;;;;;;2.83;2.27;;;;;;;9.86;50.92;102406.09;4951955;28;96890;-83
2022/04/30 02:08:07;;;;;;;2.30;2.10;;;;;;;9.83;51.01;102407.75;4968909;28;96744;-83
2022/04/30 02:10:37;;;;;;;3.20;2.17;;;;;;;9.80;51.18;102413.38;4952624;28;97047;-83
2022/04/30 02:13:06;;;;;;;2.73;1.80;;;;;;;9.81;51.14;102415.69;4955129;28;99780;-83
2022/04/30 02:15:33;;;;;;;2.80;2.30;;;;;;;9.80;51.16;102407.88;4953633;28;97304;-83
2022/04/30 02:18:00;;;;;;;3.10;1.83;;;;;;;9.74;50.98;102395.94;4953194;28;96770;-83
2022/04/30 02:20:29;;;;;;;2.80;2.13;;;;;;;9.74;51.09;102401.41;4967044;28;98778;-83
2022/04/30 02:22:58;;;;;;;3.87;2.53;;;;;;;9.69;51.32;102389.00;4967612;28;97092;-83
2022/04/30 02:25:25;;;;;;;2.43;2.00;;;;;;;9.67;51.23;102393.41;4965441;28;96873;-83
2022/04/30 02:27:58;;;;;;;14.27;2.27;;;;;;;9.64;51.63;102391.53;4968110;28;97515;-83
2022/04/30 02:30:26;;;;;;;3.77;2.50;;;;;;;9.62;51.32;102377.47;4888901;28;101852;-83
2022/04/30 02:32:57;;;;;;;3.53;2.73;;;;;;;9.60;51.51;102371.66;4951866;28;99250;-83
2022/04/30 02:35:28;;;;;;;2.97;2.47;;;;;;;9.53;51.53;102383.66;4886006;28;96878;-83
2022/04/30 02:37:58;;;;;;;2.43;2.23;;;;;;;9.49;51.45;102372.00;4954821;28;97161;-83
2022/04/30 02:40:25;;;;;;;5.40;1.97;;;;;;;9.45;51.46;102359.59;4954786;28;97878;-83
2022/04/30 02:42:52;;;;;;;4.73;2.10;;;;;;;9.39;51.27;102358.63;4954727;28;97306;-83
2022/04/30 02:45:19;;;;;;;2.90;2.40;;;;;;;9.37;51.34;102369.28;4958122;28;96896;-83
2022/04/30 02:47:46;;;;;;;2.27;2.07;;;;;;;9.33;51.39;102360.38;4959600;28;97048;-83
2022/04/30 02:50:15;;;;;;;2.07;1.90;;;;;;;9.25;51.68;102359.06;4954750;28;99049;-84
2022/04/30 02:52:42;;;;;;;2.40;2.20;;;;;;;9.21;51.53;102350.97;4955352;28;102069;-83
2022/04/30 02:55:08;;;;;;;2.60;2.40;;;;;;;9.16;51.53;102365.25;4954159;28;96956;-83
2022/04/30 03:00:36;;;;;;;2.30;2.10;;;;;;;9.09;52.30;102361.97;4887896;28;101476;-83
2022/04/30 03:03:01;;;;;;;5.10;2.50;;;;;;;9.04;51.79;102358.53;4953597;28;100485;-84
2022/04/30 03:05:27;;;;;;;3.40;2.60;;;;;;;9.02;51.69;102352.72;4960839;28;97012;-84
2022/04/30 03:07:53;;;;;;;2.27;1.90;;;;;;;8.97;52.03;102352.50;4890906;28;96657;-83
2022/04/30 03:10:20;;;;;;;2.70;2.23;;;;;;;8.92;51.91;102347.56;4957293;28;99291;-84
2022/04/30 03:12:45;;;;;;;2.40;2.20;;;;;;;8.89;51.75;102351.16;4955305;28;96974;-84
2022/04/30 03:15:11;;;;;;;3.50;2.60;;;;;;;8.84;51.84;102359.97;4887503;28;97074;-84
2022/04/30 03:23:06;;;;;;;2.50;2.30;;;;;;;8.72;51.85;102336.78;4889466;28;97324;-84
2022/04/30 03:25:32;;;;;;;4.53;2.47;;;;;;;8.70;51.95;102358.41;4953200;28;97110;-84
2022/04/30 03:27:58;;;;;;;2.80;2.10;;;;;;;8.64;51.93;102340.19;4955338;28;96807;-83
2022/04/30 03:30:23;;;;;;;3.03;2.70;;;;;;;8.62;52.02;102335.16;4889807;28;97899;-84
2022/04/30 03:32:49;;;;;;;5.23;2.37;;;;;;;8.60;51.84;102326.59;4968216;28;99316;-83
2022/04/30 03:35:15;;;;;;;2.70;2.50;;;;;;;8.60;52.07;102323.84;4969319;28;96958;-83
2022/04/30 03:37:41;;;;;;;4.83;2.47;;;;;;;8.57;52.17;102332.94;4970258;28;98356;-83
2022/04/30 03:40:07;;;;;;;6.93;2.00;;;;;;;8.53;52.14;102345.22;4953059;28;98544;-84
2022/04/30 03:42:33;;;;;;;3.37;2.40;;;;;;;8.52;52.19;102330.72;4946715;28;99860;-83
2022/04/30 03:45:01;;;;;;;3.00;2.47;;;;;;;8.46;52.15;102332.47;4890517;28;97053;-83
2022/04/30 03:47:27;;;;;;;2.50;2.30;;;;;;;8.41;52.12;102329.53;4970079;28;97040;-83
2022/04/30 03:49:52;;;;;;;2.93;2.20;;;;;;;8.43;52.30;102341.56;4949598;28;97089;-83
2022/04/30 03:52:17;;;;;;;6.50;2.80;;;;;;;8.42;52.44;102344.75;4889761;28;97879;-82
2022/04/30 03:54:43;;;;;;;5.30;2.37;;;;;;;8.44;52.21;102354.09;4956524;28;96792;-83
2022/04/30 03:57:08;;;;;;;2.93;2.40;;;;;;;8.47;52.35;102339.53;4890205;28;96800;-83
2022/04/30 03:59:34;;;;;;;2.97;2.67;;;;;;;8.44;52.42;102334.91;4953026;28;99578;-83
2022/04/30 04:02:00;;;;;;;3.60;2.63;;;;;;;8.43;52.53;102338.84;4954623;28;97701;-83
2022/04/30 04:04:26;;;;;;;4.23;2.53;;;;;;;8.44;52.57;102339.59;4953727;28;96933;-83
2022/04/30 04:06:53;;;;;;;4.87;2.70;;;;;;;8.44;52.44;102334.13;4948089;28;96968;-82
2022/04/30 04:09:18;;;;;;;2.60;2.40;;;;;;;8.43;52.31;102327.88;4888833;28;102963;-83
2022/04/30 04:11:43;;;;;;;4.10;2.97;;;;;;;8.44;52.51;102329.41;4953422;28;97477;-84
2022/04/30 04:19:36;;;;;;;5.00;2.67;;;;;;;8.50;52.60;102324.91;4887951;28;101555;-84
2022/04/30 04:22:03;;;;;;;2.93;2.47;;;;;;;8.54;52.52;102333.81;4889875;28;96889;-84
2022/04/30 04:27:13;;;;;;;4.83;2.83;;;;;;;8.59;52.58;102333.28;4888146;28;96870;-83
2022/04/30 04:29:38;;;;;;;8.70;3.00;;;;;;;8.63;52.65;102328.44;4952956;28;98907;-84
2022/04/30 04:32:04;;;;;;;3.53;2.90;;;;;;;8.66;52.55;102329.53;4953806;28;96907;-83
2022/04/30 04:34:29;;;;;;;3.13;2.80;;;;;;;8.68;52.68;102335.38;4959189;28;97003;-83
2022/04/30 04:36:55;;;;;;;6.23;3.03;;;;;;;8.73;52.74;102329.34;4970550;28;97175;-83
2022/04/30 04:39:20;;;;;;;3.60;2.80;;;;;;;8.78;52.57;102337.03;4890226;28;97334;-84
2022/04/30 04:41:46;;;;;;;4.80;2.77;;;;;;;8.81;52.54;102339.66;4958221;28;99271;-83
2022/04/30 04:44:11;;;;;;;3.97;2.77;;;;;;;8.88;52.68;102349.66;4888930;28;98166;-83
2022/04/30 04:46:41;;;;;;;2.43;2.27;;;;;;;8.91;52.86;102332.31;4955544;28;97007;-83
2022/04/30 04:49:08;;;;;;;3.23;2.83;;;;;;;8.98;52.77;102340.31;4953055;28;98630;-84
2022/04/30 04:51:34;;;;;;;3.80;3.30;;;;;;;9.01;52.65;102350.41;4968918;28;97829;-84
2022/04/30 04:54:01;;;;;;;3.73;2.70;;;;;;;9.04;52.74;102335.81;4897007;28;96911;-83
2022/04/30 04:56:27;;;;;;;4.40;3.03;;;;;;;9.09;52.72;102348.97;4953570;28;97059;-83
2022/04/30 04:58:52;;;;;;;3.20;2.90;;;;;;;9.05;52.57;102378.53;4888787;28;96859;-83
2022/04/30 05:01:18;;;;;;;3.10;2.90;;;;;;;9.13;52.79;102351.63;4959682;28;97138;-83
2022/04/30 05:03:43;;;;;;;7.30;4.07;;;;;;;9.19;53.00;102347.13;4951930;28;96986;-83
2022/04/30 05:06:09;;;;;;;3.77;2.83;;;;;;;9.22;52.83;102357.97;4971902;28;97233;-83
2022/04/30 05:08:34;;;;;;;4.17;3.47;;;;;;;9.27;53.05;102357.44;4952497;28;97330;-83
2022/04/30 05:11:00;;;;;;;3.40;3.10;;;;;;;9.32;52.88;102365.13;4956513;28;98130;-83
2022/04/30 05:13:25;;;;;;;6.40;3.00;;;;;;;9.38;52.96;102366.09;4949248;28;96986;-83
2022/04/30 05:15:51;;;;;;;3.50;3.00;;;;;;;9.44;52.96;102374.53;4954742;28;97135;-83
2022/04/30 05:18:16;;;;;;;3.73;3.43;;;;;;;9.47;53.07;102348.94;4949869;28;97926;-84
2022/04/30 05:20:42;;;;;;;6.10;3.30;;;;;;;9.56;53.11;102360.00;4969886;28;98056;-83
2022/04/30 05:23:07;;;;;;;8.50;3.63;;;;;;;9.57;52.89;102384.28;4968333;28;96916;-84
2022/04/30 05:25:33;;;;;;;5.03;3.47;;;;;;;9.63;53.01;102360.53;4952826;28;97015;-84
2022/04/30 05:27:58;;;;;;;4.53;3.00;;;;;;;9.71;52.90;102378.34;4952390;28;97337;-84
2022/04/30 05:30:24;;;;;;;6.87;3.70;;;;;;;9.80;52.91;102381.19;4887549;28;97218;-84
2022/04/30 05:32:49;;;;;;;4.53;3.27;;;;;;;9.89;53.01;102364.00;4952067;28;97373;-85
2022/04/30 05:35:15;;;;;;;4.50;3.27;;;;;;;9.97;52.89;102373.50;4957260;28;96888;-83
2022/04/30 05:37:40;;;;;;;6.83;3.37;;;;;;;10.06;52.91;102372.81;4959555;28;97420;-82
2022/04/30 05:40:07;;;;;;;6.40;3.70;;;;;;;10.12;52.89;102363.59;4887920;28;97214;-83
2022/04/30 05:42:32;;;;;;;3.17;2.87;;;;;;;10.16;52.82;102368.94;4950885;28;97364;-83
2022/04/30 05:44:58;;;;;;;4.90;3.13;;;;;;;10.24;52.92;102371.00;4950402;28;97155;-82
2022/04/30 05:47:24;;;;;;;3.87;3.47;;;;;;;10.31;52.94;102381.75;4952901;28;97696;-83
2022/04/30 05:49:51;;;;;;;4.87;3.50;;;;;;;10.41;52.94;102369.59;4890108;28;97083;-83
2022/04/30 05:52:19;;;;;;;7.50;3.10;;;;;;;10.48;52.84;102377.56;4889624;28;96782;-82
2022/04/30 05:54:44;;;;;;;4.37;3.50;;;;;;;10.54;52.93;102372.28;4952816;28;97156;-84
2022/04/30 05:57:09;;;;;;;5.30;3.13;;;;;;;10.59;52.86;102379.97;4889837;28;97841;-83
2022/04/30 05:59:35;;;;;;;3.77;3.30;;;;;;;10.64;52.83;102360.09;4953991;28;99752;-83
2022/04/30 06:02:00;;;;;;;9.03;3.43;;;;;;;10.74;52.72;102364.44;4956429;28;97195;-83
2022/04/30 06:04:26;;;;;;;3.60;3.30;;;;;;;10.79;52.70;102409.88;4952136;28;97127;-84
2022/04/30 06:06:51;;;;;;;5.13;3.67;;;;;;;10.82;52.75;102381.44;4887418;28;97509;-85
2022/04/30 06:09:19;;;;;;;3.70;2.97;;;;;;;10.85;52.68;102421.84;4951428;28;98585;-85
2022/04/30 06:11:44;;;;;;;3.27;2.50;;;;;;;10.91;52.71;102368.50;4888752;28;97002;-84
2022/04/30 06:14:10;;;;;;;4.07;3.30;;;;;;;10.98;52.78;102370.97;4889476;28;97206;-85
2022/04/30 06:16:35;;;;;;;6.67;3.43;;;;;;;11.07;52.74;102376.50;4889170;28;96659;-84
2022/04/30 06:19:01;;;;;;;3.93;2.60;;;;;;;11.13;52.47;102371.16;4955267;28;99584;-84
2022/04/30 06:21:26;;;;;;;3.27;2.97;;;;;;;11.17;52.65;102380.81;4951975;28;96936;-85
2022/04/30 06:23:51;;;;;;;6.27;3.80;;;;;;;11.25;52.69;102370.28;4889367;28;96908;-87
2022/04/30 06:26:17;;;;;;;6.03;4.13;;;;;;;11.19;52.28;102364.59;4887833;28;96724;-84
2022/04/30 06:28:42;;;;;;;6.33;3.47;;;;;;;11.12;52.55;102395.19;4886228;28;97714;-85
2022/04/30 06:31:08;;;;;;;5.33;4.10;;;;;;;11.11;52.47;102390.13;4951562;28;97059;-85
2022/04/30 06:33:33;;;;;;;3.57;3.27;;;;;;;11.14;52.86;102370.69;4967837;28;96678;-85
2022/04/30 06:35:59;;;;;;;5.53;3.30;;;;;;;11.18;52.58;102379.59;4951899;28;97067;-85
2022/04/30 06:38:25;;;;;;;5.90;3.67;;;;;;;11.26;52.67;102377.34;4955698;28;96692;-86
2022/04/30 06:40:51;;;;;;;4.57;3.63;;;;;;;11.22;52.60;102376.72;4960569;28;96655;-85
2022/04/30 06:43:16;;;;;;;4.10;3.70;;;;;;;11.27;52.66;102393.41;4885887;28;97123;-86
2022/04/30 06:45:42;;;;;;;6.37;3.60;;;;;;;11.43;52.86;102380.59;4951367;28;98586;-86
2022/04/30 06:48:07;;;;;;;4.70;3.80;;;;;;;11.57;52.65;102369.75;4952909;28;99380;-85
2022/04/30 06:50:33;;;;;;;6.17;3.50;;;;;;;11.67;52.72;102400.88;4888472;28;97004;-84
2022/04/30 06:58:26;;;;;;;3.37;3.07;;;;;;;11.68;52.22;102389.41;4887778;28;100034;-85
2022/04/30 07:03:23;;;;;;;3.33;3.03;;;;;;;11.51;52.68;102399.13;4884836;28;96833;-85
2022/04/30 07:05:51;;;;;;;7.10;3.30;;;;;;;11.54;52.69;102402.97;4928218;28;97716;-86
2022/04/30 07:08:16;;;;;;;4.93;3.33;;;;;;;11.57;52.54;102380.78;4951535;28;100009;-85
2022/04/30 07:10:42;;;;;;;3.73;3.00;;;;;;;11.61;52.96;102372.34;4952880;28;97011;-84
2022/04/30 07:13:07;;;;;;;4.63;3.27;;;;;;;11.70;52.76;102366.88;4954022;28;96917;-85
2022/04/30 07:15:32;;;;;;;3.63;3.20;;;;;;;11.78;52.90;102373.63;4954602;28;98095;-85
2022/04/30 07:17:58;;;;;;;3.47;3.17;;;;;;;11.90;52.48;102362.44;4952990;28;98468;-86
2022/04/30 07:20:23;;;;;;;6.80;2.90;;;;;;;11.99;52.40;102376.22;4944351;28;97641;-85
2022/04/30 07:22:49;;;;;;;7.43;3.53;;;;;;;12.04;52.44;102381.16;4954047;28;96914;-85
2022/04/30 07:25:14;;;;;;;3.80;3.50;;;;;;;11.86;52.48;102370.09;4892491;28;96884;-85
2022/04/30 07:27:40;;;;;;;5.33;3.70;;;;;;;11.79;52.59;102403.53;4955060;28;102260;-85
2022/04/30 07:30:06;;;;;;;5.27;3.37;;;;;;;11.85;52.54;102379.63;4964375;28;97244;-86
2022/04/30 07:32:31;;;;;;;3.87;3.07;;;;;;;11.88;52.68;102369.66;4891323;28;96959;-85
2022/04/30 07:34:57;;;;;;;5.20;3.73;;;;;;;12.03;52.77;102370.59;4959970;28;100163;-85
2022/04/30 07:37:23;;;;;;;4.73;3.53;;;;;;;12.16;52.43;102370.41;4897837;28;96723;-84
2022/04/30 07:39:53;;;;;;;6.97;3.60;;;;;;;12.35;52.68;102374.69;4977108;28;96808;-86
2022/04/30 07:42:19;;;;;;;4.27;3.20;;;;;;;12.47;52.34;102373.75;4970578;28;97224;-84
2022/04/30 07:44:44;;;;;;;4.00;3.60;;;;;;;12.63;52.14;102384.44;4962254;28;96797;-83
2022/04/30 07:47:09;;;;;;;3.63;3.37;;;;;;;12.73;52.12;102370.13;4956920;28;97093;-83
2022/04/30 07:49:36;;;;;;;3.03;2.83;;;;;;;12.86;52.10;102397.56;4960356;28;99808;-84
2022/04/30 07:52:02;;;;;;;3.93;3.47;;;;;;;12.97;51.81;102364.69;4959099;28;97068;-83
2022/04/30 07:54:27;;;;;;;3.70;3.23;;;;;;;13.05;51.77;102365.91;4955005;28;98766;-83
2022/04/30 07:56:57;;;;;;;3.50;3.20;;;;;;;13.11;51.76;102366.78;4954229;28;97424;-84
2022/04/30 07:59:23;;;;;;;3.57;3.27;;;;;;;13.12;51.70;102368.34;4955306;28;97345;-84
2022/04/30 08:01:49;;;;;;;3.87;3.57;;;;;;;13.16;51.62;102365.38;4956365;28;96592;-85
2022/04/30 08:04:15;;;;;;;6.37;3.73;;;;;;;13.20;51.70;102382.56;4953691;28;98957;-83
2022/04/30 08:06:40;;;;;;;4.30;3.90;;;;;;;13.18;51.38;102371.97;4953435;28;97130;-83
2022/04/30 08:09:06;;;;;;;4.27;3.87;;;;;;;12.96;51.40;102365.13;4953709;28;96391;-83
2022/04/30 08:11:31;;;;;;;5.03;3.80;;;;;;;12.86;51.39;102361.66;4953636;28;96567;-84
2022/04/30 08:13:57;;;;;;;3.87;3.53;;;;;;;12.84;51.67;102358.59;4954198;28;97632;-85
2022/04/30 08:16:23;;;;;;;4.80;3.37;;;;;;;12.96;52.05;102362.38;4969107;28;97411;-83
2022/04/30 08:18:48;;;;;;;4.57;3.60;;;;;;;13.02;51.77;102369.56;4954414;28;96952;-83
2022/04/30 08:21:13;;;;;;;7.87;3.17;;;;;;;13.11;51.64;102377.84;4889886;28;97131;-83
2022/04/30 08:23:39;;;;;;;5.00;3.07;;;;;;;13.10;51.69;102356.97;4969271;28;98828;-84
2022/04/30 08:26:05;;;;;;;5.60;3.00;;;;;;;13.19;51.51;102397.63;4889814;28;96784;-84
2022/04/30 08:28:30;;;;;;;3.60;3.27;;;;;;;13.25;51.30;102371.66;4970662;28;96887;-84
2022/04/30 08:30:57;;;;;;;3.20;2.90;;;;;;;13.28;51.15;102351.34;4958391;28;97406;-84
2022/04/30 08:33:23;;;;;;;3.63;3.33;;;;;;;13.28;51.25;102359.63;4966840;28;99457;-84
2022/04/30 08:35:48;;;;;;;5.37;2.87;;;;;;;13.28;51.39;102342.31;4953061;28;97909;-86
2022/04/30 08:38:14;;;;;;;3.97;2.70;;;;;;;13.31;51.39;102353.19;4952649;28;97014;-85
2022/04/30 08:40:44;;;;;;;5.40;3.50;;;;;;;13.32;50.94;102353.94;4970322;28;96889;-84
2022/04/30 08:43:14;;;;;;;6.60;3.83;;;;;;;13.23;51.09;102345.69;4952564;28;97705;-85
2022/04/30 08:45:42;;;;;;;5.97;2.60;;;;;;;13.23;51.25;102335.41;4888166;28;97298;-84
2022/04/30 08:48:11;;;;;;;4.20;3.20;;;;;;;13.30;51.33;102342.59;4970621;28;97064;-85
2022/04/30 08:50:38;;;;;;;3.20;2.90;;;;;;;13.28;51.13;102331.25;4951853;28;96847;-85
2022/04/30 08:53:04;;;;;;;3.40;3.10;;;;;;;13.35;51.06;102336.41;4888631;28;96996;-84
2022/04/30 08:55:30;;;;;;;4.40;3.10;;;;;;;13.39;51.04;102343.28;4949325;28;98446;-85
2022/04/30 08:57:55;;;;;;;4.20;3.47;;;;;;;13.42;51.09;102339.59;4909724;28;96911;-84
2022/04/30 09:00:21;;;;;;;3.23;2.80;;;;;;;13.47;51.02;102336.19;4953600;28;97137;-84
2022/04/30 09:02:55;;;;;;;3.60;3.30;;;;;;;13.54;51.14;102337.84;4953151;28;96973;-85
2022/04/30 09:05:22;;;;;;;3.80;3.10;;;;;;;13.58;51.25;102349.47;4891079;28;97170;-84
2022/04/30 09:07:59;;;;;;;8.73;2.87;;;;;;;13.63;51.14;102340.50;4965835;28;97833;-84
2022/04/30 09:10:30;;;;;;;3.77;3.20;;;;;;;13.69;51.08;102332.34;4953932;28;97031;-86
2022/04/30 09:13:10;;;;;;;6.90;3.60;;;;;;;13.69;51.22;102335.09;4952028;28;99716;-85
2022/04/30 09:15:38;;;;;;;3.47;3.20;;;;;;;13.68;51.19;102345.41;4968767;28;97393;-84
2022/04/30 09:18:04;;;;;;;3.80;2.53;;;;;;;13.74;51.07;102345.53;4959643;28;97396;-84
2022/04/30 09:20:31;;;;;;;3.70;2.80;;;;;;;13.80;50.95;102341.63;4952654;28;97385;-84
2022/04/30 09:22:56;;;;;;;3.90;3.20;;;;;;;13.90;50.91;102337.53;4889093;28;98182;-84
2022/04/30 09:25:22;;;;;;;5.10;3.50;;;;;;;14.00;51.14;102349.28;4970073;28;101875;-84
2022/04/30 09:27:51;;;;;;;3.20;3.00;;;;;;;14.14;50.85;102341.00;4967832;28;96880;-85
2022/04/30 09:30:26;;;;;;;3.50;3.20;;;;;;;14.24;50.76;102331.34;4951421;28;96964;-84
2022/04/30 09:33:07;;;;;;;3.10;2.90;;;;;;;14.37;51.26;102330.34;4952266;28;98693;-84
2022/04/30 09:38:19;;;;;;;3.23;2.93;;;;;;;14.69;50.56;102329.38;4887769;28;97211;-84
2022/04/30 09:40:52;;;;;;;3.93;2.70;;;;;;;14.84;50.11;102330.88;4888735;28;97419;-85
2022/04/30 09:43:18;;;;;;;4.60;3.07;;;;;;;14.94;50.17;102332.28;4955183;28;97280;-83
2022/04/30 09:45:43;;;;;;;2.63;2.43;;;;;;;15.08;49.87;102332.72;4888143;28;97744;-84
2022/04/30 09:53:56;;;;;;;2.00;1.90;;;;;;;14.81;49.14;102328.28;4886421;28;97177;-84
2022/04/30 09:56:36;;;;;;;5.00;2.40;;;;;;;14.84;49.01;102319.00;4952929;28;101020;-84
2022/04/30 09:59:04;;;;;;;2.80;2.43;;;;;;;14.86;49.19;102325.59;4888492;28;97449;-85
2022/04/30 10:01:32;;;;;;;2.73;2.03;;;;;;;14.88;49.11;102323.13;4895755;28;96924;-85
2022/04/30 10:04:01;;;;;;;2.30;2.10;;;;;;;14.88;48.91;102325.88;4969305;28;102664;-85
2022/04/30 10:06:26;;;;;;;3.43;2.23;;;;;;;14.85;48.86;102323.31;4885808;28;97350;-85
2022/04/30 10:08:53;;;;;;;3.37;2.30;;;;;;;14.74;48.81;102332.22;4888689;28;97067;-85
2022/04/30 10:11:47;;;;;;;4.30;2.40;;;;;;;14.80;48.33;102319.22;4952711;28;97397;-84
2022/04/30 10:14:50;;;;;;;3.90;2.23;;;;;;;14.94;48.40;102318.41;4884102;28;100892;-86
2022/04/30 10:17:20;;;;;;;2.43;1.70;;;;;;;15.09;48.76;102312.06;4955683;28;103666;-85
2022/04/30 10:19:59;;;;;;;2.00;1.90;;;;;;;15.15;47.91;102321.22;4953361;28;96614;-85
2022/04/30 10:22:25;;;;;;;1.97;1.70;;;;;;;15.24;48.59;102321.88;4888649;28;97466;-84
2022/04/30 10:24:54;;;;;;;2.97;1.97;;;;;;;15.40;48.46;102317.75;4921488;28;97022;-84
2022/04/30 10:27:20;;;;;;;1.87;1.60;;;;;;;15.55;48.25;102319.25;4937007;28;97201;-83
2022/04/30 10:29:58;;;;;;;2.63;1.40;;;;;;;15.68;47.85;102316.13;4953601;28;96988;-83
2022/04/30 10:32:29;;;;;;;2.33;1.80;;;;;;;15.74;47.94;102306.63;4889302;28;96917;-84
2022/04/30 10:34:55;;;;;;;3.33;1.70;;;;;;;15.83;47.67;102313.25;4888627;28;102478;-84
2022/04/30 10:37:47;;;;;;;1.93;1.67;;;;;;;15.86;47.03;102315.06;4951674;28;98517;-83
2022/04/30 10:40:12;;;;;;;5.97;5.10;;;;;;;15.88;47.52;102321.63;4891435;28;96964;-83
2022/04/30 10:42:43;;;;;;;3.47;3.17;;;;;;;15.75;46.92;102304.59;4951654;28;97179;-84
2022/04/30 10:45:15;;;;;;;3.53;2.43;;;;;;;15.74;47.25;102311.41;4886189;28;97007;-85
2022/04/30 10:47:54;;;;;;;2.83;2.20;;;;;;;15.81;46.63;102313.75;4890533;28;96660;-84
2022/04/30 10:50:20;;;;;;;1.90;1.80;;;;;;;15.90;47.12;102296.91;4972717;28;96548;-84
2022/04/30 10:52:50;;;;;;;4.23;1.60;;;;;;;15.95;46.80;102304.56;4952855;28;96776;-83
2022/04/30 10:55:17;;;;;;;2.63;1.60;;;;;;;15.92;46.90;102297.22;4946050;28;102912;-84
2022/04/30 10:57:44;;;;;;;2.10;1.90;;;;;;;15.98;47.06;102303.59;4969141;28;103466;-83
2022/04/30 11:00:10;;;;;;;1.70;1.60;;;;;;;16.08;47.08;102296.59;4954763;28;96999;-83
2022/04/30 11:02:36;;;;;;;2.40;1.70;;;;;;;16.20;46.68;102297.47;4889402;28;97209;-82
2022/04/30 11:05:02;;;;;;;5.63;1.70;;;;;;;16.27;46.57;102308.16;4953414;28;98688;-83
2022/04/30 11:07:30;;;;;;;1.37;1.37;;;;;;;16.35;46.41;102276.66;4927718;28;97073;-83
2022/04/30 11:09:56;;;;;;;9.83;1.60;;;;;;;16.47;46.17;102291.38;4972581;28;96948;-83
2022/04/30 11:12:27;;;;;;;1.47;1.37;;;;;;;16.54;45.69;102298.53;4957923;28;97038;-83
2022/04/30 11:14:54;;;;;;;1.50;1.40;;;;;;;16.62;45.98;102294.06;4956838;28;98048;-83
2022/04/30 11:17:19;;;;;;;1.30;1.20;;;;;;;16.66;45.62;102284.25;4951214;28;98483;-82
2022/04/30 11:19:45;;;;;;;2.20;1.73;;;;;;;16.69;45.51;102280.44;4970294;28;96854;-84
2022/04/30 11:22:14;;;;;;;1.20;1.10;;;;;;;16.68;45.35;102278.19;4888499;28;96912;-83
2022/04/30 11:24:41;;;;;;;1.90;1.63;;;;;;;16.59;44.99;102275.59;4949294;28;102332;-84
2022/04/30 11:27:08;;;;;;;1.77;1.67;;;;;;;16.35;45.11;102287.00;4948344;28;98433;-83
2022/04/30 11:29:36;;;;;;;3.53;1.30;;;;;;;16.36;45.18;102280.16;4952236;28;97361;-84
2022/04/30 11:32:06;;;;;;;1.43;1.33;;;;;;;16.28;45.23;102285.44;4887422;28;97097;-83
2022/04/30 11:34:32;;;;;;;3.67;1.33;;;;;;;16.33;45.32;102268.06;4890115;28;99275;-83
2022/04/30 11:36:59;;;;;;;1.50;1.40;;;;;;;16.33;45.15;102273.63;4887322;28;97243;-84
2022/04/30 11:39:26;;;;;;;2.60;1.10;;;;;;;16.44;45.05;102265.38;4890065;28;96997;-84
2022/04/30 11:41:54;;;;;;;2.43;1.57;;;;;;;16.49;44.83;102266.63;4888425;28;96908;-85
2022/04/30 11:44:22;;;;;;;2.70;1.70;;;;;;;16.35;44.72;102265.53;4955247;28;97774;-83
2022/04/30 11:46:52;;;;;;;2.40;1.80;;;;;;;16.24;44.84;102261.91;4970946;28;98795;-84
2022/04/30 11:49:27;;;;;;;2.40;1.40;;;;;;;16.38;44.17;102266.56;4954755;28;97041;-85
2022/04/30 11:51:56;;;;;;;1.40;1.30;;;;;;;16.45;44.67;102260.53;4952585;28;96861;-83
2022/04/30 11:54:24;;;;;;;2.57;1.50;;;;;;;16.60;44.85;102252.84;4952107;28;99520;-84
2022/04/30 11:56:52;;;;;;;1.83;0.97;;;;;;;16.69;44.69;102249.88;4965116;28;96940;-83
2022/04/30 11:59:28;;;;;;;1.23;1.23;;;;;;;16.87;44.13;102257.06;4952669;28;97115;-83
2022/04/30 12:01:54;;;;;;;1.67;1.13;;;;;;;16.95;44.35;102258.13;4884205;28;96735;-83
2022/04/30 12:04:21;;;;;;;1.73;1.47;;;;;;;16.98;44.30;102248.78;4957918;28;98554;-84
2022/04/30 12:06:58;;;;;;;3.67;1.53;;;;;;;17.06;43.20;102235.91;4954036;28;99649;-84